Time;durP1;ratioP1;P1;durP2;ratioP2;P2;SDS_P1;SDS_P2;PMS_P1;PMS_P2;Temp;Humidity;BMP_temperature;BMP_pressure;BME280_temperature;BME280_humidity;BME280_pressure;Samples;Min_cycle;Max_cycle;Signal;HPM_P1;HPM_P2
2024/01/20 00:00:30;;;;;;;;;;;;;;;-9.22;86.82;101715.50;4935173;28;19927;-87
2024/01/20 00:02:57;;;;;;;;;;;;;;;-8.50;87.69;101713.00;4951080;28;19926;-82
2024/01/20 00:05:24;;;;;;;;;;;;;;;-8.43;86.94;101719.41;4944872;28;20025;-86
2024/01/20 00:07:51;;;;;;;;;;;;;;;-8.57;85.65;101708.16;4948790;28;19935;-86
2024/01/20 00:10:17;;;;;;;;;;;;;;;-8.52;86.15;101711.94;4952363;28;19958;-82
2024/01/20 00:12:44;;;;;;;;;;;;;;;-8.41;86.27;101710.28;4951137;28;20022;-83
2024/01/20 00:15:11;;;;;;;;;;;;;;;-8.66;86.00;101715.94;4949663;28;19926;-83
2024/01/20 00:17:39;;;;;;;;;;;;;;;-8.77;86.74;101712.47;4948041;28;20009;-83
2024/01/20 00:20:07;;;;;;;;;;;;;;;-8.48;86.23;101713.13;4957735;28;19969;-82
2024/01/20 00:22:35;;;;;;;;;;;;;;;-8.69;86.74;101714.78;4949088;28;19934;-83
2024/01/20 00:25:02;;;;;;;;;;;;;;;-8.43;86.08;101710.16;4950489;28;19997;-82
2024/01/20 00:27:30;;;;;;;;;;;;;;;-8.37;86.11;101712.31;4955156;28;20013;-82
2024/01/20 00:29:57;;;;;;;;;;;;;;;-8.32;85.99;101723.75;4950818;28;19926;-83
2024/01/20 00:32:23;;;;;;;;;;;;;;;-8.55;86.17;101724.44;4950158;28;19927;-83
2024/01/20 00:34:51;;;;;;;;;;;;;;;-8.44;86.79;101738.91;4948353;28;20397;-82
2024/01/20 00:37:32;;;;;;;;;;;;;;;-8.47;87.42;101733.59;4949387;28;19970;-84
2024/01/20 00:39:59;;;;;;;;;;;;;;;-8.34;87.70;101735.47;4946761;28;19950;-85
2024/01/20 00:42:26;;;;;;;;;;;;;;;-8.46;87.52;101743.00;4947078;28;19982;-83
2024/01/20 00:44:52;;;;;;;;;;;;;;;-8.23;87.08;101737.22;4931045;29;19927;-82
2024/01/20 00:47:19;;;;;;;;;;;;;;;-8.38;86.89;101738.53;4949463;28;19926;-84
2024/01/20 00:49:47;;;;;;;;;;;;;;;-8.39;86.71;101729.97;4944669;28;19970;-83
2024/01/20 00:52:14;;;;;;;;;;;;;;;-8.23;87.01;101729.56;4948733;29;19927;-83
2024/01/20 00:54:41;;;;;;;;;;;;;;;-8.21;86.62;101728.06;4948591;29;19927;-83
2024/01/20 00:57:07;;;;;;;;;;;;;;;-8.39;86.19;101729.97;4951367;28;19940;-84
2024/01/20 00:59:34;;;;;;;;;;;;;;;-8.63;86.04;101728.00;4945800;28;19926;-83
2024/01/20 01:02:00;;;;;;;;;;;;;;;-8.93;86.08;101719.59;4950996;28;19927;-85
2024/01/20 01:04:27;;;;;;;;;;;;;;;-9.22;86.92;101723.13;4947861;28;19934;-84
2024/01/20 01:06:54;;;;;;;;;;;;;;;-8.98;86.93;101715.78;4949748;28;20017;-86
2024/01/20 01:09:21;;;;;;;;;;;;;;;-8.74;86.76;101717.81;4945055;28;19926;-84
2024/01/20 01:11:47;;;;;;;;;;;;;;;-8.54;84.94;101720.22;4933373;29;19935;-82
2024/01/20 01:14:14;;;;;;;;;;;;;;;-9.38;83.39;101717.47;4951378;28;19926;-83
2024/01/20 01:16:41;;;;;;;;;;;;;;;-9.62;85.06;101722.25;4935072;29;19937;-83
2024/01/20 01:19:08;;;;;;;;;;;;;;;-9.14;84.70;101717.06;4947184;28;19935;-82
2024/01/20 01:21:35;;;;;;;;;;;;;;;-9.12;84.15;101723.16;4947338;28;19934;-84
2024/01/20 01:24:02;;;;;;;;;;;;;;;-8.95;83.84;101724.56;4943353;28;19934;-83
2024/01/20 01:26:29;;;;;;;;;;;;;;;-8.98;84.03;101736.13;4947693;28;19934;-83
2024/01/20 01:28:58;;;;;;;;;;;;;;;-8.84;83.69;101744.94;4944091;28;19926;-82
2024/01/20 01:31:25;;;;;;;;;;;;;;;-8.64;83.71;101749.16;4953895;28;19931;-85
2024/01/20 01:33:52;;;;;;;;;;;;;;;-8.63;83.08;101751.81;4947312;28;20005;-83
2024/01/20 01:36:18;;;;;;;;;;;;;;;-8.85;83.19;101756.75;4949922;28;19966;-83
2024/01/20 01:38:45;;;;;;;;;;;;;;;-8.88;83.58;101768.34;4947362;28;19986;-84
2024/01/20 01:41:12;;;;;;;;;;;;;;;-8.74;83.60;101770.38;4934125;28;19930;-84
2024/01/20 01:43:39;;;;;;;;;;;;;;;-8.68;83.09;101775.09;4928463;28;19926;-85
2024/01/20 01:46:05;;;;;;;;;;;;;;;-8.68;82.75;101778.53;4948251;28;19927;-84
2024/01/20 01:48:33;;;;;;;;;;;;;;;-9.03;82.48;101788.28;4925239;28;19934;-84
2024/01/20 01:51:02;;;;;;;;;;;;;;;-9.19;82.12;101786.97;4934408;28;19937;-83
2024/01/20 01:53:28;;;;;;;;;;;;;;;-9.28;82.31;101786.19;4929891;28;19934;-82
2024/01/20 01:55:55;;;;;;;;;;;;;;;-9.24;82.17;101772.06;4929273;28;19926;-82
2024/01/20 01:58:21;;;;;;;;;;;;;;;-9.22;82.21;101771.44;4933014;28;19953;-84
2024/01/20 02:00:48;;;;;;;;;;;;;;;-9.32;81.62;101773.97;4931672;29;19926;-86
2024/01/20 02:03:15;;;;;;;;;;;;;;;-9.46;81.81;101781.31;4928265;29;20017;-83
2024/01/20 02:05:42;;;;;;;;;;;;;;;-10.07;82.18;101786.06;4951666;28;19931;-83
2024/01/20 02:08:09;;;;;;;;;;;;;;;-9.62;83.08;101778.16;4941913;28;19934;-82
2024/01/20 02:10:36;;;;;;;;;;;;;;;-9.91;83.81;101773.94;4932946;28;19933;-84
2024/01/20 02:13:03;;;;;;;;;;;;;;;-10.23;84.67;101777.06;4927607;28;19934;-82
2024/01/20 02:15:30;;;;;;;;;;;;;;;-9.62;85.56;101778.16;4929811;29;19952;-83
2024/01/20 02:17:56;;;;;;;;;;;;;;;-9.19;84.89;101779.34;4945101;28;20021;-82
2024/01/20 02:20:23;;;;;;;;;;;;;;;-9.40;84.27;101774.94;4942477;28;19986;-83
2024/01/20 02:22:50;;;;;;;;;;;;;;;-9.28;84.91;101781.97;4943536;28;19926;-84
2024/01/20 02:25:17;;;;;;;;;;;;;;;-9.25;84.66;101786.44;4945168;28;20256;-83
2024/01/20 02:27:44;;;;;;;;;;;;;;;-9.17;84.56;101795.59;4946563;28;20017;-85
2024/01/20 02:30:11;;;;;;;;;;;;;;;-9.23;84.37;101790.00;4946678;28;19934;-85
2024/01/20 02:32:37;;;;;;;;;;;;;;;-9.11;84.82;101796.16;4950003;28;19926;-82
2024/01/20 02:35:04;;;;;;;;;;;;;;;-9.43;84.65;101795.91;4947606;28;20012;-83
2024/01/20 02:37:31;;;;;;;;;;;;;;;-9.32;84.41;101784.13;4945747;28;19926;-84
2024/01/20 02:39:58;;;;;;;;;;;;;;;-9.12;84.88;101789.28;4945580;28;19933;-84
2024/01/20 02:42:24;;;;;;;;;;;;;;;-8.92;84.14;101788.44;4927723;28;19965;-83
2024/01/20 02:44:51;;;;;;;;;;;;;;;-9.05;83.29;101789.78;4950599;28;19933;-86
2024/01/20 02:47:18;;;;;;;;;;;;;;;-9.41;83.04;101791.88;4947666;28;20410;-84
2024/01/20 02:49:45;;;;;;;;;;;;;;;-9.34;83.70;101788.19;4944423;28;20154;-82
2024/01/20 02:52:12;;;;;;;;;;;;;;;-9.36;83.77;101789.72;4946111;28;19934;-82
2024/01/20 02:54:38;;;;;;;;;;;;;;;-9.12;84.12;101789.28;4949121;28;19933;-83
2024/01/20 02:57:05;;;;;;;;;;;;;;;-9.30;83.83;101800.41;4947860;28;20049;-83
2024/01/20 02:59:32;;;;;;;;;;;;;;;-9.29;83.82;101799.66;4944920;28;20366;-84
2024/01/20 03:02:01;;;;;;;;;;;;;;;-9.51;84.50;101797.78;4948770;28;19958;-83
2024/01/20 03:04:28;;;;;;;;;;;;;;;-9.54;84.62;101804.25;4946647;28;19930;-83
2024/01/20 03:06:55;;;;;;;;;;;;;;;-9.40;85.36;101798.72;4928888;28;19926;-85
2024/01/20 03:09:22;;;;;;;;;;;;;;;-9.48;85.30;101800.59;4928855;28;20110;-82
2024/01/20 03:11:49;;;;;;;;;;;;;;;-9.60;85.75;101807.16;4928835;28;19934;-87
2024/01/20 03:14:15;;;;;;;;;;;;;;;-9.71;86.11;101802.78;4912861;28;19962;-85
2024/01/20 03:16:42;;;;;;;;;;;;;;;-9.70;85.57;101796.91;4945387;28;19948;-83
2024/01/20 03:19:08;;;;;;;;;;;;;;;-9.67;85.88;101799.75;4929873;28;19931;-83
2024/01/20 03:21:35;;;;;;;;;;;;;;;-9.98;85.94;101794.47;4918875;28;19926;-82
2024/01/20 03:24:03;;;;;;;;;;;;;;;-9.88;86.43;101797.06;4936563;28;19931;-85
2024/01/20 03:26:32;;;;;;;;;;;;;;;-9.99;86.07;101797.81;4948899;28;19973;-86
2024/01/20 03:28:59;;;;;;;;;;;;;;;-9.85;86.44;101789.72;4945663;28;19933;-83
2024/01/20 03:31:25;;;;;;;;;;;;;;;-9.66;86.64;101796.44;4948554;28;19926;-83
2024/01/20 03:33:52;;;;;;;;;;;;;;;-9.93;86.43;101795.78;4947638;28;19934;-84
2024/01/20 03:36:19;;;;;;;;;;;;;;;-9.77;86.08;101804.75;4936043;28;19953;-84
2024/01/20 03:38:46;;;;;;;;;;;;;;;-9.57;85.91;101812.50;4951527;28;19926;-84
2024/01/20 03:41:12;;;;;;;;;;;;;;;-9.39;85.53;101794.53;4952397;28;19927;-82
2024/01/20 03:43:39;;;;;;;;;;;;;;;-9.36;85.11;101793.13;4944177;28;20061;-84
2024/01/20 03:46:06;;;;;;;;;;;;;;;-9.33;84.49;101798.47;4947896;28;19939;-82
2024/01/20 03:48:32;;;;;;;;;;;;;;;-9.30;84.33;101792.78;4948915;28;19941;-85
2024/01/20 03:50:59;;;;;;;;;;;;;;;-9.49;84.13;101796.25;4944749;28;20413;-83
2024/01/20 03:53:26;;;;;;;;;;;;;;;-9.61;84.24;101797.75;4907978;29;19927;-86
2024/01/20 03:55:52;;;;;;;;;;;;;;;-9.58;84.13;101800.56;4943222;28;19926;-82
2024/01/20 03:58:19;;;;;;;;;;;;;;;-9.58;83.78;101792.03;4947867;28;19941;-84
2024/01/20 04:00:46;;;;;;;;;;;;;;;-9.35;84.40;101812.72;4947685;28;19933;-85
2024/01/20 04:03:13;;;;;;;;;;;;;;;-9.26;83.77;101815.16;4949575;28;19926;-83
2024/01/20 04:05:40;;;;;;;;;;;;;;;-9.30;83.99;101823.28;4942592;28;19927;-84
2024/01/20 04:08:06;;;;;;;;;;;;;;;-9.49;83.93;101829.31;4945309;28;19926;-82
2024/01/20 04:10:33;;;;;;;;;;;;;;;-9.37;83.80;101833.69;4934428;28;20004;-87
2024/01/20 04:13:00;;;;;;;;;;;;;;;-9.33;83.56;101828.13;4927869;28;19933;-84
2024/01/20 04:15:26;;;;;;;;;;;;;;;-9.35;83.33;101834.72;4927847;28;19933;-82
2024/01/20 04:17:53;;;;;;;;;;;;;;;-9.51;83.13;101824.88;4946177;28;19927;-83
2024/01/20 04:20:20;;;;;;;;;;;;;;;-9.36;83.33;101828.72;4950925;28;19926;-82
2024/01/20 04:22:47;;;;;;;;;;;;;;;-9.32;82.65;101832.44;4949962;28;19927;-87
2024/01/20 04:25:14;;;;;;;;;;;;;;;-9.29;83.40;101845.44;4950860;28;19926;-82
2024/01/20 04:27:40;;;;;;;;;;;;;;;-9.19;83.04;101858.19;4950888;28;19927;-83
2024/01/20 04:30:08;;;;;;;;;;;;;;;-9.24;82.92;101848.38;4941188;28;19974;-83
2024/01/20 04:32:35;;;;;;;;;;;;;;;-9.19;83.30;101839.50;4948323;28;20289;-84
2024/01/20 04:35:05;;;;;;;;;;;;;;;-9.23;82.83;101845.06;4961660;28;20029;-83
2024/01/20 04:37:32;;;;;;;;;;;;;;;-9.26;83.20;101851.66;4951234;28;19997;-83
2024/01/20 04:39:59;;;;;;;;;;;;;;;-9.26;82.77;101853.31;4954199;28;19926;-83
2024/01/20 04:42:26;;;;;;;;;;;;;;;-9.21;82.48;101854.63;4959928;28;19937;-83
2024/01/20 04:44:53;;;;;;;;;;;;;;;-9.38;82.67;101857.31;4954560;28;19933;-83
2024/01/20 04:47:20;;;;;;;;;;;;;;;-9.32;82.73;101866.38;4960444;28;19930;-84
2024/01/20 04:49:48;;;;;;;;;;;;;;;-9.53;82.79;101875.56;4960716;28;19935;-85
2024/01/20 04:52:15;;;;;;;;;;;;;;;-9.54;82.53;101871.25;4954154;28;19934;-83
2024/01/20 04:54:41;;;;;;;;;;;;;;;-9.47;82.55;101873.56;4955639;28;19927;-84
2024/01/20 04:57:09;;;;;;;;;;;;;;;-9.37;82.79;101865.09;4941902;28;20005;-84
2024/01/20 04:59:35;;;;;;;;;;;;;;;-9.65;82.78;101875.34;4961767;28;19930;-83
2024/01/20 05:02:02;;;;;;;;;;;;;;;-9.64;82.35;101878.81;4961858;28;19926;-85
2024/01/20 05:04:29;;;;;;;;;;;;;;;-9.85;82.32;101877.75;4937583;29;19926;-83
2024/01/20 05:06:56;;;;;;;;;;;;;;;-9.90;82.13;101881.56;4952891;28;20017;-83
2024/01/20 05:09:23;;;;;;;;;;;;;;;-9.70;82.67;101885.84;4940907;28;19933;-84
2024/01/20 05:11:49;;;;;;;;;;;;;;;-9.60;82.83;101883.41;4948492;28;19926;-83
2024/01/20 05:14:16;;;;;;;;;;;;;;;-9.72;82.92;101872.13;4951234;28;19939;-84
2024/01/20 05:16:43;;;;;;;;;;;;;;;-9.69;82.24;101874.94;4957553;28;19933;-84
2024/01/20 05:19:09;;;;;;;;;;;;;;;-10.27;82.24;101876.53;4951508;28;19981;-83
2024/01/20 05:21:37;;;;;;;;;;;;;;;-10.05;83.35;101869.25;4940891;28;20022;-83
2024/01/20 05:24:07;;;;;;;;;;;;;;;-10.02;84.35;101866.06;4953330;28;19952;-83
2024/01/20 05:26:33;;;;;;;;;;;;;;;-10.16;84.47;101875.00;4945173;28;19990;-83
2024/01/20 05:29:00;;;;;;;;;;;;;;;-9.60;84.49;101878.34;4954312;28;19933;-83
2024/01/20 05:31:31;;;;;;;;;;;;;;;-9.71;83.60;101876.47;4954723;28;19933;-83
2024/01/20 05:33:58;;;;;;;;;;;;;;;-9.55;83.44;101879.63;4953277;28;19927;-85
2024/01/20 05:36:28;;;;;;;;;;;;;;;-9.68;83.87;101889.44;4954078;28;19937;-82
2024/01/20 05:38:55;;;;;;;;;;;;;;;-9.65;83.65;101890.59;4930152;28;19940;-84
2024/01/20 05:41:22;;;;;;;;;;;;;;;-9.65;83.10;101887.19;4962367;28;19937;-85
2024/01/20 05:43:49;;;;;;;;;;;;;;;-9.59;82.75;101900.44;4935445;29;19926;-83
2024/01/20 05:46:18;;;;;;;;;;;;;;;-9.58;82.17;101901.34;4955901;28;20037;-83
2024/01/20 05:48:44;;;;;;;;;;;;;;;-9.83;82.41;101892.41;4946608;29;20369;-83
2024/01/20 05:51:11;;;;;;;;;;;;;;;-9.67;83.04;101893.78;4955367;28;19926;-83
2024/01/20 05:53:38;;;;;;;;;;;;;;;-9.90;82.42;101897.69;4917848;28;19937;-82
2024/01/20 05:58:58;;;;;;;;;;;;;;;-9.89;83.44;101899.47;4871404;29;19990;-86
2024/01/20 06:01:24;;;;;;;;;;;;;;;-9.91;83.25;101903.50;4894136;29;20030;-82
2024/01/20 06:03:51;;;;;;;;;;;;;;;-9.94;82.97;101900.69;4911217;29;19927;-83
2024/01/20 06:06:18;;;;;;;;;;;;;;;-10.05;83.06;101906.44;4912442;29;19949;-82
2024/01/20 06:08:45;;;;;;;;;;;;;;;-9.75;83.35;101909.97;4904020;29;19949;-83
2024/01/20 06:11:12;;;;;;;;;;;;;;;-9.89;82.53;101918.88;4882346;29;19934;-82
2024/01/20 06:13:39;;;;;;;;;;;;;;;-9.75;82.86;101908.31;4910402;29;19991;-82
2024/01/20 06:16:06;;;;;;;;;;;;;;;-10.06;82.37;101919.91;4901833;29;19969;-82
2024/01/20 06:18:33;;;;;;;;;;;;;;;-9.85;82.23;101921.84;4902791;29;19931;-81
2024/01/20 06:21:00;;;;;;;;;;;;;;;-9.76;82.43;101914.19;4912273;29;20394;-82
2024/01/20 06:23:27;;;;;;;;;;;;;;;-9.75;82.03;101932.84;4919947;29;19934;-82
2024/01/20 06:25:54;;;;;;;;;;;;;;;-9.88;82.11;101943.53;4910493;29;19934;-82
2024/01/20 06:28:23;;;;;;;;;;;;;;;-9.85;82.59;101951.44;4913530;29;19938;-82
2024/01/20 06:30:50;;;;;;;;;;;;;;;-9.82;82.47;101954.25;4906549;29;19938;-82
2024/01/20 06:33:17;;;;;;;;;;;;;;;-9.82;82.27;101957.72;4898408;29;20383;-82
2024/01/20 06:35:46;;;;;;;;;;;;;;;-9.93;81.92;101958.38;4913616;29;19927;-82
2024/01/20 06:38:12;;;;;;;;;;;;;;;-9.86;81.69;101949.66;4917787;29;19939;-81
2024/01/20 06:40:39;;;;;;;;;;;;;;;-9.93;81.55;101962.53;4913043;29;19927;-81
2024/01/20 06:43:06;;;;;;;;;;;;;;;-10.04;81.96;101964.13;4887655;29;19963;-82
2024/01/20 06:45:34;;;;;;;;;;;;;;;-10.31;81.47;101970.94;4912393;29;20025;-81
2024/01/20 06:48:01;;;;;;;;;;;;;;;-10.41;81.72;101966.72;4909508;29;20028;-81
2024/01/20 06:50:29;;;;;;;;;;;;;;;-10.41;82.93;101970.88;4911859;29;19926;-81
2024/01/20 06:52:56;;;;;;;;;;;;;;;-10.22;83.42;101974.38;4911317;29;19927;-81
2024/01/20 06:55:22;;;;;;;;;;;;;;;-10.00;83.46;101964.53;4915519;29;19927;-82
2024/01/20 06:57:49;;;;;;;;;;;;;;;-10.36;83.14;101969.69;4911217;29;19938;-84
2024/01/20 07:00:16;;;;;;;;;;;;;;;-10.02;83.12;101963.50;4910246;29;19934;-83
2024/01/20 07:02:43;;;;;;;;;;;;;;;-10.01;82.95;101966.94;4914209;29;19950;-85
2024/01/20 07:05:09;;;;;;;;;;;;;;;-10.15;82.74;101971.63;4913195;29;19935;-82
2024/01/20 07:07:37;;;;;;;;;;;;;;;-10.25;82.99;101984.25;4909841;29;19938;-82
2024/01/20 07:10:05;;;;;;;;;;;;;;;-10.18;82.52;101981.53;4909427;29;19942;-85
2024/01/20 07:12:32;;;;;;;;;;;;;;;-10.44;82.44;101980.75;4910034;29;19977;-85
2024/01/20 07:14:59;;;;;;;;;;;;;;;-10.13;83.12;101985.34;4913259;29;19927;-82
2024/01/20 07:17:26;;;;;;;;;;;;;;;-10.18;82.81;101991.69;4905867;29;20002;-83
2024/01/20 07:19:53;;;;;;;;;;;;;;;-10.39;83.77;101993.13;4911592;29;20397;-82
2024/01/20 07:22:19;;;;;;;;;;;;;;;-10.32;83.36;101994.56;4914942;29;20256;-85
2024/01/20 07:24:46;;;;;;;;;;;;;;;-10.39;82.99;101989.69;4911915;29;19927;-83
2024/01/20 07:27:13;;;;;;;;;;;;;;;-10.05;83.43;101990.25;4901913;29;19934;-85
2024/01/20 07:29:41;;;;;;;;;;;;;;;-10.12;82.88;101993.91;4914901;29;19926;-82
2024/01/20 07:32:07;;;;;;;;;;;;;;;-10.05;83.01;101998.78;4916399;29;19927;-82
2024/01/20 07:34:34;;;;;;;;;;;;;;;-10.22;82.78;102007.38;4915640;29;19935;-83
2024/01/20 07:37:01;;;;;;;;;;;;;;;-10.10;82.64;102005.06;4908137;29;19931;-85
2024/01/20 07:39:28;;;;;;;;;;;;;;;-10.11;82.74;102013.44;4912504;29;20442;-83
2024/01/20 07:41:55;;;;;;;;;;;;;;;-10.13;82.70;102020.91;4913135;29;20295;-84
2024/01/20 07:44:22;;;;;;;;;;;;;;;-10.03;81.88;102031.94;4913835;29;20418;-83
2024/01/20 07:46:49;;;;;;;;;;;;;;;-10.00;82.20;102035.66;4896480;29;19928;-83
2024/01/20 07:49:16;;;;;;;;;;;;;;;-9.98;82.30;102045.97;4910239;29;20030;-84
2024/01/20 07:51:42;;;;;;;;;;;;;;;-10.02;83.15;102046.41;4915426;29;19934;-86
2024/01/20 07:54:12;;;;;;;;;;;;;;;-9.90;83.15;102044.16;4867759;29;20363;-83
2024/01/20 08:00:04;;;;;;;;;;;;;;;-9.97;85.09;102046.09;4914270;28;19961;-87
2024/01/20 08:02:31;;;;;;;;;;;;;;;-9.75;84.88;102040.47;4934496;28;19927;-85
2024/01/20 08:04:59;;;;;;;;;;;;;;;-9.63;83.99;102035.59;4916470;29;19934;-85
2024/01/20 08:07:26;;;;;;;;;;;;;;;-9.98;84.49;102041.78;4919266;29;20063;-84
2024/01/20 08:09:53;;;;;;;;;;;;;;;-9.90;83.69;102050.13;4928191;28;19994;-86
2024/01/20 08:12:22;;;;;;;;;;;;;;;-9.74;83.67;102043.91;4953199;28;20284;-84
2024/01/20 08:14:50;;;;;;;;;;;;;;;-9.54;83.57;102046.63;4933094;28;19927;-84
2024/01/20 08:17:28;;;;;;;;;;;;;;;-9.51;83.15;102043.50;4902164;28;19946;-81
2024/01/20 08:19:55;;;;;;;;;;;;;;;-9.56;83.35;102049.78;4949398;28;19997;-82
2024/01/20 08:22:22;;;;;;;;;;;;;;;-9.55;83.55;102055.00;4934423;29;19939;-81
2024/01/20 08:24:48;;;;;;;;;;;;;;;-9.42;83.31;102051.06;4947772;28;19931;-82
2024/01/20 08:27:15;;;;;;;;;;;;;;;-9.44;83.87;102051.81;4944136;29;19937;-82
2024/01/20 08:29:42;;;;;;;;;;;;;;;-9.62;84.73;102053.53;4945087;28;19973;-81
2024/01/20 08:32:08;;;;;;;;;;;;;;;-9.74;85.00;102056.63;4949579;28;19926;-82
2024/01/20 08:34:35;;;;;;;;;;;;;;;-9.61;85.39;102049.38;4950564;28;19927;-82
2024/01/20 08:37:01;;;;;;;;;;;;;;;-9.48;86.33;102047.19;4943915;28;19946;-81
2024/01/20 08:39:28;;;;;;;;;;;;;;;-9.37;86.57;102059.97;4949388;28;20379;-82
2024/01/20 08:41:55;;;;;;;;;;;;;;;-9.25;87.63;102056.03;4934052;29;20013;-82
2024/01/20 08:44:22;;;;;;;;;;;;;;;-9.03;87.73;102063.94;4923382;29;19930;-82
2024/01/20 08:46:48;;;;;;;;;;;;;;;-9.07;87.61;102060.97;4947965;28;19942;-81
2024/01/20 08:49:15;;;;;;;;;;;;;;;-9.15;87.83;102063.72;4937214;29;19933;-82
2024/01/20 08:51:41;;;;;;;;;;;;;;;-8.91;88.26;102069.22;4945911;28;19934;-81
2024/01/20 08:54:08;;;;;;;;;;;;;;;-8.71;88.07;102077.75;4949007;28;19930;-80
2024/01/20 08:56:35;;;;;;;;;;;;;;;-8.64;88.25;102077.53;4925972;29;19934;-82
2024/01/20 08:59:02;;;;;;;;;;;;;;;-8.63;88.71;102079.28;4939241;28;19926;-82
2024/01/20 09:01:29;;;;;;;;;;;;;;;-8.63;88.67;102086.94;4947441;28;19933;-82
2024/01/20 09:03:56;;;;;;;;;;;;;;;-8.46;89.01;102084.22;4944037;28;19938;-82
2024/01/20 09:06:23;;;;;;;;;;;;;;;-8.27;89.34;102084.16;4944883;28;19927;-82
2024/01/20 09:08:50;;;;;;;;;;;;;;;-8.07;89.52;102078.22;4945294;29;19934;-81
2024/01/20 09:11:17;;;;;;;;;;;;;;;-8.20;89.25;102077.94;4932480;28;19927;-81
2024/01/20 09:13:43;;;;;;;;;;;;;;;-8.26;89.24;102085.06;4948115;28;19930;-81
2024/01/20 09:16:10;;;;;;;;;;;;;;;-7.87;89.89;102092.69;4948848;28;19927;-80
2024/01/20 09:18:37;;;;;;;;;;;;;;;-7.75;89.78;102091.94;4942227;28;19939;-82
2024/01/20 09:21:08;;;;;;;;;;;;;;;-7.64;89.87;102101.41;4946137;28;19933;-81
2024/01/20 09:23:35;;;;;;;;;;;;;;;-7.57;89.89;102102.84;4948031;28;20541;-81
2024/01/20 09:26:02;;;;;;;;;;;;;;;-7.64;89.92;102103.97;4933528;29;19934;-80
2024/01/20 09:28:29;;;;;;;;;;;;;;;-7.65;90.10;102103.84;4940000;28;19927;-81
2024/01/20 09:30:55;;;;;;;;;;;;;;;-7.45;90.19;102103.84;4956212;28;19984;-81
2024/01/20 09:33:22;;;;;;;;;;;;;;;-7.27;90.40;102104.53;4943828;28;20021;-81
2024/01/20 09:35:49;;;;;;;;;;;;;;;-7.09;90.10;102107.69;4947932;28;19926;-82
2024/01/20 09:38:15;;;;;;;;;;;;;;;-7.11;89.75;102110.88;4950150;28;19926;-82
2024/01/20 09:40:42;;;;;;;;;;;;;;;-7.03;89.94;102108.19;4944468;28;19929;-81
2024/01/20 09:43:09;;;;;;;;;;;;;;;-6.88;90.17;102107.66;4939724;28;19938;-81
2024/01/20 09:45:38;;;;;;;;;;;;;;;-6.78;90.15;102102.53;4926211;28;19926;-82
2024/01/20 09:48:06;;;;;;;;;;;;;;;-6.62;89.86;102103.81;4929238;29;19933;-81
2024/01/20 09:50:33;;;;;;;;;;;;;;;-6.61;89.81;102100.50;4921393;28;19976;-81
2024/01/20 09:53:04;;;;;;;;;;;;;;;-6.52;89.81;102098.66;4952553;28;19926;-82
2024/01/20 09:55:31;;;;;;;;;;;;;;;-6.42;89.86;102095.19;4912725;28;19931;-82
2024/01/20 09:57:58;;;;;;;;;;;;;;;-6.38;89.78;102090.44;4941436;28;19930;-81
2024/01/20 10:00:24;;;;;;;;;;;;;;;-6.29;89.93;102096.28;4935785;29;19926;-82
2024/01/20 10:02:51;;;;;;;;;;;;;;;-6.16;89.58;102089.59;4944099;28;19930;-80
2024/01/20 10:05:18;;;;;;;;;;;;;;;-6.15;89.29;102084.59;4953296;28;19949;-81
2024/01/20 10:07:44;;;;;;;;;;;;;;;-6.13;89.36;102090.72;4945958;28;19974;-82
2024/01/20 10:10:19;;;;;;;;;;;;;;;-6.11;89.08;102093.41;4926211;28;19935;-82
2024/01/20 10:12:50;;;;;;;;;;;;;;;-5.95;89.02;102103.16;4940822;28;19926;-83
2024/01/20 10:15:21;;;;;;;;;;;;;;;-5.94;88.66;102103.28;4948886;28;20021;-83
2024/01/20 10:17:48;;;;;;;;;;;;;;;-5.84;88.50;102114.19;4948043;28;19926;-83
2024/01/20 10:20:18;;;;;;;;;;;;;;;-5.79;88.10;102115.47;4934379;29;19932;-83
2024/01/20 10:22:45;;;;;;;;;;;;;;;-5.67;88.10;102116.41;4948060;28;19926;-82
2024/01/20 10:25:18;;;;;;;;;;;;;;;-5.54;88.37;102104.56;4945731;28;19945;-82
2024/01/20 10:27:46;;;;;;;;;;;;;;;-5.55;88.52;102105.34;4947903;28;19965;-83
2024/01/20 10:30:16;;;;;;;;;;;;;;;-5.51;88.21;102097.13;4948774;28;19927;-82
2024/01/20 10:32:47;;;;;;;;;;;;;;;-5.49;87.83;102109.28;4941367;28;20311;-83
2024/01/20 10:35:33;;;;;;;;;;;;;;;-5.38;87.59;102099.84;4940388;28;19941;-83
2024/01/20 10:38:00;;;;;;;;;;;;;;;-5.24;87.82;102099.22;4925439;28;19935;-82
2024/01/20 10:40:27;;;;;;;;;;;;;;;-5.24;87.67;102096.66;4945733;29;19931;-82
2024/01/20 10:42:54;;;;;;;;;;;;;;;-5.17;87.04;102087.78;4943014;28;20398;-83
2024/01/20 10:45:21;;;;;;;;;;;;;;;-5.10;86.95;102081.44;4944078;28;19938;-83
2024/01/20 10:47:57;;;;;;;;;;;;;;;-4.95;87.42;102081.69;4942764;28;19934;-83
2024/01/20 10:50:25;;;;;;;;;;;;;;;-5.00;86.94;102072.78;4940783;28;20058;-82
2024/01/20 10:52:51;;;;;;;;;;;;;;;-4.89;86.67;102077.03;4944923;28;19930;-81
2024/01/20 10:55:18;;;;;;;;;;;;;;;-4.78;86.36;102080.34;4942458;28;20384;-82
2024/01/20 10:57:46;;;;;;;;;;;;;;;-4.71;86.41;102077.47;4944610;28;19927;-83
2024/01/20 11:00:12;;;;;;;;;;;;;;;-4.58;86.57;102079.25;4943473;28;19933;-81
2024/01/20 11:02:39;;;;;;;;;;;;;;;-4.48;86.18;102074.00;4933991;28;19926;-81
2024/01/20 11:05:21;;;;;;;;;;;;;;;-4.41;85.95;102065.09;4941352;28;19927;-82
2024/01/20 11:07:57;;;;;;;;;;;;;;;-4.22;86.02;102057.03;4947984;28;19933;-83
2024/01/20 11:10:24;;;;;;;;;;;;;;;-4.16;85.87;102048.91;4928729;29;19927;-83
2024/01/20 11:12:58;;;;;;;;;;;;;;;-4.02;85.54;102054.19;4945149;28;19934;-83
2024/01/20 11:15:27;;;;;;;;;;;;;;;-3.91;85.25;102044.72;4942201;28;19930;-83
2024/01/20 11:17:54;;;;;;;;;;;;;;;-3.87;84.70;102039.00;4947213;28;19937;-83
2024/01/20 11:20:20;;;;;;;;;;;;;;;-3.77;84.47;102040.50;4947822;29;19965;-84
2024/01/20 11:22:47;;;;;;;;;;;;;;;-3.66;83.88;102038.69;4950292;28;19933;-83
2024/01/20 11:25:14;;;;;;;;;;;;;;;-3.52;83.36;102043.09;4957042;28;19927;-84
2024/01/20 11:27:45;;;;;;;;;;;;;;;-3.45;83.04;102033.22;4953935;28;19926;-84
2024/01/20 11:30:12;;;;;;;;;;;;;;;-3.30;83.02;102026.56;4959225;28;19935;-84
2024/01/20 11:32:41;;;;;;;;;;;;;;;-3.29;82.90;102028.31;4953878;28;19927;-83
2024/01/20 11:35:08;;;;;;;;;;;;;;;-3.32;82.68;102030.69;4936031;28;19926;-85
2024/01/20 11:37:34;;;;;;;;;;;;;;;-3.26;82.53;102030.19;4948456;28;20039;-85
2024/01/20 11:40:07;;;;;;;;;;;;;;;-3.18;81.83;102029.03;4952846;28;19927;-85
2024/01/20 11:42:35;;;;;;;;;;;;;;;-3.03;81.82;102031.72;4952163;28;20031;-82
2024/01/20 11:45:02;;;;;;;;;;;;;;;-2.97;81.02;102026.97;4952606;28;19926;-84
2024/01/20 11:47:29;;;;;;;;;;;;;;;-2.90;80.85;102026.59;4953765;28;19927;-84
2024/01/20 11:49:56;;;;;;;;;;;;;;;-2.87;81.20;102021.69;4959107;28;19964;-83
2024/01/20 11:52:23;;;;;;;;;;;;;;;-2.80;80.42;102028.97;4937130;29;19958;-84
2024/01/20 11:54:50;;;;;;;;;;;;;;;-2.71;80.13;102020.06;4960707;28;19938;-84
2024/01/20 11:57:23;;;;;;;;;;;;;;;-2.76;80.03;102018.91;4954689;28;19933;-84
2024/01/20 11:59:50;;;;;;;;;;;;;;;-2.68;79.82;102022.84;4934008;29;19949;-84
2024/01/20 12:02:17;;;;;;;;;;;;;;;-2.62;79.79;102023.25;4955373;28;19933;-83
2024/01/20 12:04:44;;;;;;;;;;;;;;;-2.64;78.99;102019.69;4948089;28;19946;-83
2024/01/20 12:07:11;;;;;;;;;;;;;;;-2.52;79.07;102020.47;4932745;29;19970;-83
2024/01/20 12:09:37;;;;;;;;;;;;;;;-2.52;78.93;102017.00;4933051;29;19927;-83
2024/01/20 12:12:05;;;;;;;;;;;;;;;-2.57;78.98;102006.41;4945088;29;19927;-82
2024/01/20 12:14:32;;;;;;;;;;;;;;;-2.48;79.00;102012.16;4946788;28;19927;-81
2024/01/20 12:16:59;;;;;;;;;;;;;;;-2.23;77.88;102018.84;4951517;28;19960;-81
2024/01/20 12:19:26;;;;;;;;;;;;;;;-2.29;77.47;102010.72;4946720;28;19965;-83
2024/01/20 12:21:53;;;;;;;;;;;;;;;-2.03;77.91;102003.72;4952934;28;19931;-82
2024/01/20 12:24:19;;;;;;;;;;;;;;;-1.96;77.02;102008.47;4937628;28;19937;-83
2024/01/20 12:26:46;;;;;;;;;;;;;;;-2.15;76.53;101997.03;4951840;28;19926;-82
2024/01/20 12:29:13;;;;;;;;;;;;;;;-1.90;76.31;101987.34;4934837;29;19930;-82
2024/01/20 12:31:40;;;;;;;;;;;;;;;-1.92;77.30;101984.69;4950174;28;19945;-82
2024/01/20 12:34:06;;;;;;;;;;;;;;;-1.72;77.63;101978.16;4928806;28;19926;-82
2024/01/20 12:36:33;;;;;;;;;;;;;;;-1.53;75.75;101984.41;4945234;28;19938;-82
2024/01/20 12:39:00;;;;;;;;;;;;;;;-1.64;75.56;101973.47;4934283;28;20013;-83
2024/01/20 12:41:26;;;;;;;;;;;;;;;-1.55;76.11;101976.59;4952455;28;19931;-82